Terminal Aerodrome Forecast
Issued by NWS Tuscon, AZ

Home | Current Version | Previous Version | Text Only | Print | Product List | Glossary On
Versions: 1 2 3 4 5 6 7 8 9 10 11 12
000
FTUS45 KTWC 211732
TAFDUG
TAF
KDUG 211732Z 2118/2218 VRB04KT P6SM BKN250
     FM212100 01008KT P6SM BKN250
     FM220400 08010KT P6SM BKN250=

USA.gov is the U.S. government's official web portal to all federal, state and local government web resources and services.